Time;durP1;ratioP1;P1;durP2;ratioP2;P2;SDS_P1;SDS_P2;PMS_P1;PMS_P2;Temp;Humidity;BMP_temperature;BMP_pressure;BME280_temperature;BME280_humidity;BME280_pressure;Samples;Min_cycle;Max_cycle;Signal;HPM_P1;HPM_P2
2020/12/13 00:02:00;;;;;;;;;;;19.50;38.40;;;;;;491612;240;1049;-69
2020/12/13 00:04:02;;;;;;;;;;;19.50;38.40;;;;;;491626;240;1043;-69
2020/12/13 00:06:03;;;;;;;;;;;19.50;38.40;;;;;;491572;240;2191;-69
2020/12/13 00:08:04;;;;;;;;;;;19.50;38.30;;;;;;491589;240;1162;-69
2020/12/13 00:10:05;;;;;;;;;;;19.50;38.30;;;;;;491686;240;1191;-69
2020/12/13 00:12:07;;;;;;;;;;;19.50;38.20;;;;;;491571;240;1077;-69
2020/12/13 00:14:08;;;;;;;;;;;19.50;38.30;;;;;;491705;240;1175;-69
2020/12/13 00:16:11;;;;;;;;;;;19.60;38.30;;;;;;491550;240;1152;-69
2020/12/13 00:18:11;;;;;;;;;;;19.50;38.30;;;;;;491647;242;1514;-69
2020/12/13 00:20:12;;;;;;;;;;;19.50;38.30;;;;;;491641;240;989;-69
2020/12/13 00:22:13;;;;;;;;;;;19.50;38.40;;;;;;491618;240;1118;-69
2020/12/13 00:24:14;;;;;;;;;;;19.50;38.30;;;;;;491642;240;982;-69
2020/12/13 00:26:16;;;;;;;;;;;19.50;38.30;;;;;;491625;240;2207;-69
2020/12/13 00:28:17;;;;;;;;;;;19.40;38.30;;;;;;491649;240;1416;-69
2020/12/13 00:30:19;;;;;;;;;;;19.40;38.50;;;;;;491630;240;1061;-69
2020/12/13 00:32:20;;;;;;;;;;;19.50;38.40;;;;;;491632;240;1188;-70
2020/12/13 00:34:21;;;;;;;;;;;19.50;38.30;;;;;;491710;240;963;-69
2020/12/13 00:36:22;;;;;;;;;;;19.40;38.20;;;;;;491680;240;973;-69
2020/12/13 00:38:24;;;;;;;;;;;19.50;38.40;;;;;;491704;240;1348;-69
2020/12/13 00:40:25;;;;;;;;;;;19.50;38.30;;;;;;491680;240;1208;-69
2020/12/13 00:42:26;;;;;;;;;;;19.50;38.40;;;;;;491672;240;1174;-69
2020/12/13 00:44:27;;;;;;;;;;;19.40;38.40;;;;;;491640;240;1196;-69
2020/12/13 00:46:29;;;;;;;;;;;19.40;38.30;;;;;;491616;240;2192;-69
2020/12/13 00:48:30;;;;;;;;;;;19.40;38.50;;;;;;491675;240;1217;-70
2020/12/13 00:50:33;;;;;;;;;;;19.40;38.40;;;;;;491671;240;1050;-69
2020/12/13 00:52:34;;;;;;;;;;;19.40;38.50;;;;;;491653;240;1368;-69
2020/12/13 00:54:35;;;;;;;;;;;19.50;38.40;;;;;;491626;240;1050;-69
2020/12/13 00:56:36;;;;;;;;;;;19.50;38.30;;;;;;491598;240;954;-69
2020/12/13 00:58:37;;;;;;;;;;;19.50;38.40;;;;;;491587;240;1164;-69
2020/12/13 01:00:39;;;;;;;;;;;19.50;38.30;;;;;;491629;240;1066;-69
2020/12/13 01:02:40;;;;;;;;;;;19.40;38.50;;;;;;491669;240;963;-69
2020/12/13 01:04:41;;;;;;;;;;;19.40;38.50;;;;;;491614;240;950;-69
2020/12/13 01:06:43;;;;;;;;;;;19.40;38.60;;;;;;491650;240;2183;-69
2020/12/13 01:08:44;;;;;;;;;;;19.50;38.60;;;;;;491642;240;952;-69
2020/12/13 01:10:45;;;;;;;;;;;19.40;38.60;;;;;;491645;240;1023;-69
2020/12/13 01:12:46;;;;;;;;;;;19.40;38.50;;;;;;491637;240;982;-69
2020/12/13 01:14:48;;;;;;;;;;;19.40;38.60;;;;;;491675;240;1288;-69
2020/12/13 01:16:49;;;;;;;;;;;19.40;38.50;;;;;;491646;240;1126;-69
2020/12/13 01:18:50;;;;;;;;;;;19.40;38.50;;;;;;491676;240;1103;-69
2020/12/13 01:20:52;;;;;;;;;;;19.50;38.50;;;;;;491718;240;1064;-69
2020/12/13 01:22:53;;;;;;;;;;;19.50;38.50;;;;;;491654;240;1154;-69
2020/12/13 01:24:54;;;;;;;;;;;19.50;38.40;;;;;;491754;240;1061;-69
2020/12/13 01:26:55;;;;;;;;;;;19.50;38.40;;;;;;491664;240;2199;-69
2020/12/13 01:28:57;;;;;;;;;;;19.50;38.50;;;;;;491675;240;1148;-69
2020/12/13 01:30:58;;;;;;;;;;;19.40;38.50;;;;;;491665;240;1019;-69
2020/12/13 01:32:59;;;;;;;;;;;19.40;38.50;;;;;;491647;240;1080;-69
2020/12/13 01:35:01;;;;;;;;;;;19.40;38.40;;;;;;491632;240;987;-69
2020/12/13 01:37:02;;;;;;;;;;;19.40;38.50;;;;;;491625;240;1140;-69
2020/12/13 01:39:03;;;;;;;;;;;19.40;38.40;;;;;;491644;240;976;-69
2020/12/13 01:41:04;;;;;;;;;;;19.40;38.50;;;;;;491598;240;1087;-69
2020/12/13 01:43:06;;;;;;;;;;;19.50;38.40;;;;;;491725;240;1113;-69
2020/12/13 01:45:07;;;;;;;;;;;19.50;38.30;;;;;;491698;240;1171;-69
2020/12/13 01:47:08;;;;;;;;;;;19.50;38.20;;;;;;491644;240;2191;-69
2020/12/13 01:49:10;;;;;;;;;;;19.50;38.30;;;;;;491660;240;974;-69
2020/12/13 01:51:15;;;;;;;;;;;19.50;38.30;;;;;;491620;240;1344;-69
2020/12/13 01:53:15;;;;;;;;;;;19.40;38.30;;;;;;491710;240;1398;-69
2020/12/13 01:55:17;;;;;;;;;;;19.50;38.30;;;;;;491640;240;975;-69
2020/12/13 01:57:19;;;;;;;;;;;19.50;38.20;;;;;;491654;240;952;-69
2020/12/13 01:59:21;;;;;;;;;;;19.50;38.30;;;;;;491682;240;1136;-69
2020/12/13 02:01:22;;;;;;;;;;;19.50;38.30;;;;;;491617;240;1402;-71
2020/12/13 02:03:23;;;;;;;;;;;19.50;38.20;;;;;;491653;240;1066;-69
2020/12/13 02:05:24;;;;;;;;;;;19.50;38.20;;;;;;491672;240;1078;-69
2020/12/13 02:07:25;;;;;;;;;;;19.50;38.20;;;;;;491670;239;2180;-69
2020/12/13 02:09:28;;;;;;;;;;;19.50;38.30;;;;;;491648;240;970;-71
2020/12/13 02:11:31;;;;;;;;;;;19.50;38.20;;;;;;491647;240;1038;-69
2020/12/13 02:13:31;;;;;;;;;;;19.60;38.20;;;;;;491668;240;1370;-69
2020/12/13 02:15:32;;;;;;;;;;;19.50;38.20;;;;;;491657;240;1185;-69
2020/12/13 02:17:36;;;;;;;;;;;19.50;38.30;;;;;;491669;240;1061;-69
2020/12/13 02:19:35;;;;;;;;;;;19.40;38.30;;;;;;491657;240;1427;-69
2020/12/13 02:21:37;;;;;;;;;;;19.40;38.40;;;;;;491805;240;1035;-69
2020/12/13 02:23:39;;;;;;;;;;;19.40;38.40;;;;;;491676;240;1029;-69
2020/12/13 02:25:40;;;;;;;;;;;19.50;38.40;;;;;;491652;240;1087;-69
2020/12/13 02:27:41;;;;;;;;;;;19.50;38.30;;;;;;491620;240;2184;-69
2020/12/13 02:29:43;;;;;;;;;;;19.50;38.30;;;;;;491673;240;1211;-69
2020/12/13 02:31:44;;;;;;;;;;;19.50;38.30;;;;;;491638;240;1168;-69
2020/12/13 02:33:45;;;;;;;;;;;19.40;38.40;;;;;;491717;240;1095;-69
2020/12/13 02:35:46;;;;;;;;;;;19.40;38.40;;;;;;491622;240;968;-69
2020/12/13 02:37:48;;;;;;;;;;;19.50;38.50;;;;;;491548;240;1066;-69
2020/12/13 02:39:49;;;;;;;;;;;19.40;38.40;;;;;;491625;240;1029;-69
2020/12/13 02:41:50;;;;;;;;;;;19.40;38.50;;;;;;491630;240;1121;-69
2020/12/13 02:43:51;;;;;;;;;;;19.40;38.40;;;;;;491640;240;1169;-69
2020/12/13 02:45:53;;;;;;;;;;;19.40;38.40;;;;;;491640;240;2191;-69
2020/12/13 02:47:54;;;;;;;;;;;19.40;38.40;;;;;;491656;240;996;-69
2020/12/13 02:49:55;;;;;;;;;;;19.40;38.50;;;;;;491622;240;1121;-69
2020/12/13 02:51:57;;;;;;;;;;;19.40;38.50;;;;;;491623;240;1052;-69
2020/12/13 02:53:59;;;;;;;;;;;19.50;38.40;;;;;;491645;240;956;-69
2020/12/13 02:55:59;;;;;;;;;;;19.50;38.40;;;;;;491622;240;1445;-69
2020/12/13 02:58:00;;;;;;;;;;;19.40;38.50;;;;;;491677;240;1067;-70
2020/12/13 03:00:02;;;;;;;;;;;19.40;38.60;;;;;;491627;240;1156;-69
2020/12/13 03:02:03;;;;;;;;;;;19.40;38.70;;;;;;491630;240;937;-69
2020/12/13 03:04:04;;;;;;;;;;;19.40;38.70;;;;;;491605;240;1085;-69
2020/12/13 03:06:05;;;;;;;;;;;19.40;38.60;;;;;;491647;240;2195;-69
2020/12/13 03:08:08;;;;;;;;;;;19.40;38.60;;;;;;491720;240;1032;-69
2020/12/13 03:10:08;;;;;;;;;;;19.40;38.60;;;;;;491671;240;1104;-69
2020/12/13 03:12:10;;;;;;;;;;;19.50;38.70;;;;;;491672;240;1132;-69
2020/12/13 03:14:11;;;;;;;;;;;19.40;38.70;;;;;;491639;240;1034;-69
2020/12/13 03:16:12;;;;;;;;;;;19.40;38.70;;;;;;491588;240;1186;-69
2020/12/13 03:18:14;;;;;;;;;;;19.40;38.70;;;;;;491597;240;1098;-69
2020/12/13 03:20:15;;;;;;;;;;;19.40;38.80;;;;;;491624;240;1080;-69
2020/12/13 03:22:16;;;;;;;;;;;19.50;38.80;;;;;;491601;240;1158;-69
2020/12/13 03:24:17;;;;;;;;;;;19.50;38.60;;;;;;491628;240;964;-69
2020/12/13 03:26:19;;;;;;;;;;;19.50;38.60;;;;;;491664;240;2182;-69
2020/12/13 03:28:20;;;;;;;;;;;19.50;38.70;;;;;;491669;240;1048;-69
2020/12/13 03:30:21;;;;;;;;;;;19.40;38.80;;;;;;491589;240;1136;-69
2020/12/13 03:32:23;;;;;;;;;;;19.40;38.90;;;;;;491538;240;1196;-69
2020/12/13 03:34:24;;;;;;;;;;;19.40;38.90;;;;;;491574;240;1057;-69
2020/12/13 03:36:25;;;;;;;;;;;19.50;38.80;;;;;;491645;240;1220;-69
2020/12/13 03:38:26;;;;;;;;;;;19.50;38.70;;;;;;491671;240;970;-69
2020/12/13 03:40:28;;;;;;;;;;;19.50;38.70;;;;;;491598;240;1109;-70
2020/12/13 03:42:29;;;;;;;;;;;19.50;38.70;;;;;;491672;240;1190;-69
2020/12/13 03:44:30;;;;;;;;;;;19.50;38.70;;;;;;491669;240;1055;-69
2020/12/13 03:46:31;;;;;;;;;;;19.40;38.70;;;;;;491635;240;2188;-69
2020/12/13 03:48:33;;;;;;;;;;;19.50;38.70;;;;;;491613;240;962;-69
2020/12/13 03:50:40;;;;;;;;;;;19.50;38.70;;;;;;491622;240;1130;-69
2020/12/13 03:52:41;;;;;;;;;;;19.40;38.80;;;;;;491603;240;1041;-69
2020/12/13 03:54:42;;;;;;;;;;;19.40;38.80;;;;;;491589;240;1109;-69
2020/12/13 03:56:44;;;;;;;;;;;19.40;38.80;;;;;;491595;240;1153;-69
2020/12/13 03:58:45;;;;;;;;;;;19.40;38.90;;;;;;491638;240;1065;-69
2020/12/13 04:00:46;;;;;;;;;;;19.40;38.90;;;;;;491618;240;1188;-69
2020/12/13 04:02:47;;;;;;;;;;;19.40;38.80;;;;;;491817;240;977;-70
2020/12/13 04:04:49;;;;;;;;;;;19.40;38.90;;;;;;491727;240;1064;-69
2020/12/13 04:06:50;;;;;;;;;;;19.40;38.90;;;;;;491580;240;2191;-69
2020/12/13 04:08:51;;;;;;;;;;;19.30;39.00;;;;;;491700;240;966;-69
2020/12/13 04:10:53;;;;;;;;;;;19.30;39.00;;;;;;491689;240;1003;-69
2020/12/13 04:12:54;;;;;;;;;;;19.30;39.10;;;;;;491536;240;1095;-69
2020/12/13 04:14:55;;;;;;;;;;;19.30;39.10;;;;;;491609;240;949;-69
2020/12/13 04:16:56;;;;;;;;;;;19.30;39.10;;;;;;491699;240;1371;-69
2020/12/13 04:18:58;;;;;;;;;;;19.20;39.10;;;;;;491658;240;1196;-69
2020/12/13 04:20:59;;;;;;;;;;;19.20;39.10;;;;;;491684;240;984;-69
2020/12/13 04:23:00;;;;;;;;;;;19.20;39.10;;;;;;491678;240;1078;-69
2020/12/13 04:25:01;;;;;;;;;;;19.20;39.10;;;;;;491754;240;968;-69
2020/12/13 04:27:03;;;;;;;;;;;19.30;39.20;;;;;;491648;240;2191;-69
2020/12/13 04:29:04;;;;;;;;;;;19.20;39.30;;;;;;491593;240;1154;-69
2020/12/13 04:31:05;;;;;;;;;;;19.20;39.30;;;;;;491684;240;1128;-69
2020/12/13 04:33:10;;;;;;;;;;;19.20;39.30;;;;;;491676;240;1311;-69
2020/12/13 04:35:08;;;;;;;;;;;19.20;39.30;;;;;;491588;241;1348;-69
2020/12/13 04:37:09;;;;;;;;;;;19.20;39.20;;;;;;491589;240;1243;-69
2020/12/13 04:39:10;;;;;;;;;;;19.20;39.20;;;;;;491706;240;1160;-70
2020/12/13 04:41:12;;;;;;;;;;;19.20;39.20;;;;;;491671;240;988;-69
2020/12/13 04:43:13;;;;;;;;;;;19.30;39.10;;;;;;491694;240;1265;-69
2020/12/13 04:45:14;;;;;;;;;;;19.40;39.10;;;;;;491681;240;959;-69
2020/12/13 04:47:16;;;;;;;;;;;19.30;39.10;;;;;;491627;240;2196;-69
2020/12/13 04:49:17;;;;;;;;;;;19.30;39.10;;;;;;491644;240;1094;-69
2020/12/13 04:51:19;;;;;;;;;;;19.30;39.10;;;;;;491648;240;1030;-69
2020/12/13 04:53:20;;;;;;;;;;;19.30;39.10;;;;;;491676;240;1052;-69
2020/12/13 04:55:21;;;;;;;;;;;19.30;39.20;;;;;;491700;240;1020;-69
2020/12/13 04:57:22;;;;;;;;;;;19.30;39.30;;;;;;491588;240;1199;-70
2020/12/13 04:59:25;;;;;;;;;;;19.30;39.30;;;;;;491679;240;1279;-69
2020/12/13 05:01:25;;;;;;;;;;;19.30;39.40;;;;;;491567;240;1398;-69
2020/12/13 05:03:26;;;;;;;;;;;19.20;39.30;;;;;;491645;240;1277;-69
2020/12/13 05:05:27;;;;;;;;;;;19.30;39.40;;;;;;491622;240;1127;-69
2020/12/13 05:07:29;;;;;;;;;;;19.30;39.40;;;;;;491590;240;2188;-69
2020/12/13 05:09:30;;;;;;;;;;;19.20;39.50;;;;;;491550;240;1181;-69
2020/12/13 05:11:31;;;;;;;;;;;19.20;39.70;;;;;;491605;240;1166;-69
2020/12/13 05:13:33;;;;;;;;;;;19.20;39.70;;;;;;491666;240;1072;-69
2020/12/13 05:15:34;;;;;;;;;;;19.20;39.70;;;;;;491675;240;970;-69
2020/12/13 05:17:35;;;;;;;;;;;19.20;39.70;;;;;;491652;240;1197;-69
2020/12/13 05:19:36;;;;;;;;;;;19.30;39.70;;;;;;491678;240;970;-69
2020/12/13 05:21:38;;;;;;;;;;;19.20;39.70;;;;;;491669;240;1078;-69
2020/12/13 05:23:39;;;;;;;;;;;19.20;39.70;;;;;;491678;240;1095;-69
2020/12/13 05:25:40;;;;;;;;;;;19.20;39.80;;;;;;491644;240;1170;-69
2020/12/13 05:27:42;;;;;;;;;;;19.20;39.80;;;;;;491690;240;2192;-69
2020/12/13 05:29:44;;;;;;;;;;;19.20;39.80;;;;;;491606;240;957;-69
2020/12/13 05:31:45;;;;;;;;;;;19.20;39.80;;;;;;491593;240;1364;-69
2020/12/13 05:33:49;;;;;;;;;;;19.20;39.80;;;;;;491705;240;965;-69
2020/12/13 05:35:48;;;;;;;;;;;19.20;40.00;;;;;;491640;241;1305;-69
2020/12/13 05:37:49;;;;;;;;;;;19.20;40.10;;;;;;491670;240;1179;-69
2020/12/13 05:39:50;;;;;;;;;;;19.20;40.10;;;;;;491670;240;1003;-70
2020/12/13 05:41:52;;;;;;;;;;;19.20;40.10;;;;;;491698;240;1310;-69
2020/12/13 05:44:02;;;;;;;;;;;19.20;40.10;;;;;;491682;240;1079;-69
2020/12/13 05:46:18;;;;;;;;;;;19.10;40.10;;;;;;491664;241;1307;-69
2020/12/13 05:50:53;;;;;;;;;;;19.20;40.10;;;;;;491592;240;955;-69
2020/12/13 05:52:49;;;;;;;;;;;19.10;40.10;;;;;;491578;242;1522;-69
2020/12/13 05:54:50;;;;;;;;;;;19.20;40.20;;;;;;491746;240;980;-69
2020/12/13 05:56:52;;;;;;;;;;;19.10;40.10;;;;;;491648;240;1168;-69
2020/12/13 05:58:55;;;;;;;;;;;19.10;40.20;;;;;;491610;240;1064;-70
2020/12/13 06:00:55;;;;;;;;;;;19.10;40.30;;;;;;491549;241;1332;-69
2020/12/13 06:02:55;;;;;;;;;;;19.10;40.20;;;;;;491625;240;1114;-69
2020/12/13 06:04:57;;;;;;;;;;;19.10;40.30;;;;;;491650;240;956;-69
2020/12/13 06:06:58;;;;;;;;;;;19.10;40.30;;;;;;491620;240;1191;-69
2020/12/13 06:08:59;;;;;;;;;;;19.20;40.20;;;;;;491683;240;1088;-69
2020/12/13 06:11:01;;;;;;;;;;;19.20;40.10;;;;;;491671;240;1105;-69
2020/12/13 06:13:02;;;;;;;;;;;19.10;40.10;;;;;;491662;240;1052;-69
2020/12/13 06:15:03;;;;;;;;;;;19.20;40.10;;;;;;491653;240;956;-69
2020/12/13 06:17:04;;;;;;;;;;;19.20;40.20;;;;;;491655;239;1315;-69
2020/12/13 06:19:06;;;;;;;;;;;19.20;40.20;;;;;;491748;240;1108;-69
2020/12/13 06:21:07;;;;;;;;;;;19.20;40.10;;;;;;491621;240;959;-69
2020/12/13 06:23:08;;;;;;;;;;;19.20;40.10;;;;;;491626;240;943;-70
2020/12/13 06:25:10;;;;;;;;;;;19.20;40.10;;;;;;491655;240;945;-69
2020/12/13 06:27:11;;;;;;;;;;;19.20;40.20;;;;;;491692;240;2180;-70
2020/12/13 06:29:12;;;;;;;;;;;19.20;40.20;;;;;;491703;240;1055;-69
2020/12/13 06:31:13;;;;;;;;;;;19.20;40.20;;;;;;491736;240;1058;-69
2020/12/13 06:33:15;;;;;;;;;;;19.20;40.20;;;;;;491747;240;1164;-69
2020/12/13 06:35:16;;;;;;;;;;;19.20;40.20;;;;;;491766;240;1046;-69
2020/12/13 06:37:17;;;;;;;;;;;19.20;40.10;;;;;;491686;240;1109;-69
2020/12/13 06:39:18;;;;;;;;;;;19.20;40.20;;;;;;491766;240;1113;-69
2020/12/13 06:41:20;;;;;;;;;;;19.20;40.20;;;;;;491699;240;1325;-69
2020/12/13 06:43:21;;;;;;;;;;;19.10;40.30;;;;;;491663;240;991;-69
2020/12/13 06:45:22;;;;;;;;;;;19.20;40.20;;;;;;491673;240;1142;-69
2020/12/13 06:47:24;;;;;;;;;;;19.10;40.30;;;;;;491666;240;2199;-69
2020/12/13 06:49:25;;;;;;;;;;;19.10;40.30;;;;;;491655;240;1186;-69
2020/12/13 06:51:27;;;;;;;;;;;19.10;40.30;;;;;;491690;240;959;-69
2020/12/13 06:53:28;;;;;;;;;;;19.10;40.40;;;;;;491633;240;1055;-69
2020/12/13 06:55:29;;;;;;;;;;;19.10;40.30;;;;;;491666;240;1194;-69
2020/12/13 06:57:31;;;;;;;;;;;19.10;40.30;;;;;;491645;240;1111;-69
2020/12/13 06:59:32;;;;;;;;;;;19.20;40.30;;;;;;491663;240;1063;-69
2020/12/13 07:01:34;;;;;;;;;;;19.20;40.20;;;;;;491630;240;1029;-70
2020/12/13 07:03:34;;;;;;;;;;;19.10;40.30;;;;;;491623;240;1430;-70
2020/12/13 07:05:36;;;;;;;;;;;19.20;40.30;;;;;;491594;240;1157;-69
2020/12/13 07:07:37;;;;;;;;;;;19.20;40.30;;;;;;491683;240;2196;-69
2020/12/13 07:09:38;;;;;;;;;;;19.20;40.30;;;;;;491648;240;951;-69
2020/12/13 07:11:40;;;;;;;;;;;19.20;40.20;;;;;;491626;240;982;-69
2020/12/13 07:13:41;;;;;;;;;;;19.20;40.40;;;;;;491682;240;970;-69
2020/12/13 07:15:46;;;;;;;;;;;19.20;40.30;;;;;;491612;240;1059;-69
2020/12/13 07:17:43;;;;;;;;;;;19.20;40.40;;;;;;491590;241;1474;-69
2020/12/13 07:19:45;;;;;;;;;;;19.20;40.40;;;;;;491649;240;1151;-69
2020/12/13 07:21:46;;;;;;;;;;;19.20;40.30;;;;;;491611;240;972;-69
2020/12/13 07:23:47;;;;;;;;;;;19.20;40.20;;;;;;491619;240;1163;-69
2020/12/13 07:25:49;;;;;;;;;;;19.20;40.30;;;;;;491626;240;1066;-69
2020/12/13 07:27:50;;;;;;;;;;;19.20;40.50;;;;;;491599;240;2195;-69
2020/12/13 07:29:51;;;;;;;;;;;19.10;40.50;;;;;;491635;240;1064;-70
2020/12/13 07:31:52;;;;;;;;;;;19.10;40.50;;;;;;491654;240;1065;-69
2020/12/13 07:33:54;;;;;;;;;;;19.10;40.60;;;;;;491720;240;1185;-69
2020/12/13 07:35:55;;;;;;;;;;;19.20;40.50;;;;;;491643;240;1180;-69
2020/12/13 07:37:56;;;;;;;;;;;19.20;40.50;;;;;;491646;240;1122;-69
2020/12/13 07:39:57;;;;;;;;;;;19.20;40.60;;;;;;491624;240;1007;-69
2020/12/13 07:41:59;;;;;;;;;;;19.20;40.50;;;;;;491594;240;1050;-69
2020/12/13 07:44:00;;;;;;;;;;;19.20;40.60;;;;;;491678;240;985;-69
2020/12/13 07:46:01;;;;;;;;;;;19.20;40.70;;;;;;491597;240;1134;-69
2020/12/13 07:48:03;;;;;;;;;;;19.20;40.70;;;;;;491585;240;2198;-69
2020/12/13 07:50:04;;;;;;;;;;;19.20;40.70;;;;;;491633;240;1148;-69
2020/12/13 07:52:06;;;;;;;;;;;19.10;40.80;;;;;;491611;240;1083;-69
2020/12/13 07:54:07;;;;;;;;;;;19.20;40.80;;;;;;491657;240;1074;-70
2020/12/13 07:56:08;;;;;;;;;;;19.10;40.90;;;;;;491603;240;976;-69
2020/12/13 07:58:09;;;;;;;;;;;19.20;40.90;;;;;;491676;240;1112;-69
2020/12/13 08:00:10;;;;;;;;;;;19.10;40.90;;;;;;491610;240;950;-69
2020/12/13 08:02:12;;;;;;;;;;;19.00;40.90;;;;;;491627;240;1167;-69
2020/12/13 08:04:13;;;;;;;;;;;19.10;41.10;;;;;;491614;240;1206;-69
2020/12/13 08:06:15;;;;;;;;;;;19.10;41.00;;;;;;491627;240;1476;-69
2020/12/13 08:08:16;;;;;;;;;;;19.10;41.10;;;;;;491581;240;2192;-69
2020/12/13 08:10:17;;;;;;;;;;;19.10;41.00;;;;;;491639;240;962;-70
2020/12/13 08:12:19;;;;;;;;;;;19.10;41.00;;;;;;491595;240;1248;-69
2020/12/13 08:14:20;;;;;;;;;;;19.00;41.00;;;;;;491644;240;1374;-69
2020/12/13 08:16:21;;;;;;;;;;;19.10;41.00;;;;;;491593;240;1207;-69
2020/12/13 08:18:22;;;;;;;;;;;19.10;40.90;;;;;;491654;240;1058;-69
2020/12/13 08:20:23;;;;;;;;;;;19.10;41.00;;;;;;491649;240;1173;-69
2020/12/13 08:22:25;;;;;;;;;;;19.10;41.00;;;;;;491644;240;1246;-69
2020/12/13 08:24:26;;;;;;;;;;;19.00;41.00;;;;;;491670;240;979;-69
2020/12/13 08:26:27;;;;;;;;;;;19.00;41.00;;;;;;491650;240;971;-69
2020/12/13 08:28:29;;;;;;;;;;;19.10;41.10;;;;;;491572;240;2207;-69
2020/12/13 08:30:30;;;;;;;;;;;19.10;41.10;;;;;;491584;240;944;-69
2020/12/13 08:32:31;;;;;;;;;;;19.10;41.10;;;;;;491608;240;971;-70
2020/12/13 08:34:32;;;;;;;;;;;19.10;41.00;;;;;;491622;240;1149;-70
2020/12/13 08:36:34;;;;;;;;;;;19.10;41.00;;;;;;491617;240;1047;-69
2020/12/13 08:38:35;;;;;;;;;;;19.10;41.10;;;;;;491615;240;1272;-70
2020/12/13 08:40:36;;;;;;;;;;;19.00;41.10;;;;;;491658;240;966;-69
2020/12/13 08:42:37;;;;;;;;;;;19.00;41.20;;;;;;491585;240;964;-69
2020/12/13 08:44:39;;;;;;;;;;;19.00;41.20;;;;;;491593;240;949;-69
2020/12/13 08:46:43;;;;;;;;;;;19.00;41.20;;;;;;491570;240;1120;-69
2020/12/13 08:48:42;;;;;;;;;;;19.10;41.10;;;;;;491561;241;2204;-69
2020/12/13 08:50:44;;;;;;;;;;;19.10;41.20;;;;;;491586;240;1180;-69
2020/12/13 08:52:45;;;;;;;;;;;19.10;41.10;;;;;;491639;240;959;-69
2020/12/13 08:54:46;;;;;;;;;;;19.10;41.10;;;;;;491764;240;975;-69
2020/12/13 08:56:48;;;;;;;;;;;19.10;41.00;;;;;;491661;240;953;-69
2020/12/13 08:58:49;;;;;;;;;;;19.10;41.10;;;;;;491668;240;960;-69
2020/12/13 09:00:51;;;;;;;;;;;19.10;41.20;;;;;;491686;240;1053;-69
2020/12/13 09:02:52;;;;;;;;;;;19.10;41.20;;;;;;491675;240;966;-69
2020/12/13 09:04:53;;;;;;;;;;;19.10;41.20;;;;;;491663;240;1156;-69
2020/12/13 09:06:54;;;;;;;;;;;19.10;41.20;;;;;;491680;240;1055;-69
2020/12/13 09:08:56;;;;;;;;;;;19.10;41.30;;;;;;491683;240;2183;-69
2020/12/13 09:11:03;;;;;;;;;;;19.00;41.20;;;;;;491785;240;1062;-69
2020/12/13 09:12:58;;;;;;;;;;;19.00;41.40;;;;;;491589;242;1342;-69
2020/12/13 09:14:59;;;;;;;;;;;19.00;41.40;;;;;;491640;240;1208;-69
2020/12/13 09:17:01;;;;;;;;;;;19.00;41.30;;;;;;491600;240;1069;-69
2020/12/13 09:19:02;;;;;;;;;;;19.00;41.30;;;;;;491700;240;1183;-69
2020/12/13 09:21:04;;;;;;;;;;;19.10;41.40;;;;;;491644;240;1193;-69
2020/12/13 09:23:05;;;;;;;;;;;19.00;41.30;;;;;;491622;240;1162;-70
2020/12/13 09:25:06;;;;;;;;;;;19.00;41.40;;;;;;491611;240;1184;-69
2020/12/13 09:27:07;;;;;;;;;;;19.00;41.40;;;;;;491603;240;1085;-70
2020/12/13 09:29:08;;;;;;;;;;;19.00;41.40;;;;;;491633;240;2191;-69
2020/12/13 09:31:10;;;;;;;;;;;19.00;41.40;;;;;;491694;240;1059;-70
2020/12/13 09:33:11;;;;;;;;;;;19.00;41.40;;;;;;491645;240;1115;-70
2020/12/13 09:35:12;;;;;;;;;;;19.00;41.40;;;;;;491658;240;1316;-69
2020/12/13 09:37:13;;;;;;;;;;;19.10;41.40;;;;;;491575;240;1133;-69
2020/12/13 09:39:15;;;;;;;;;;;19.10;41.40;;;;;;491636;240;942;-69
2020/12/13 09:41:16;;;;;;;;;;;19.10;41.40;;;;;;491601;240;962;-70
2020/12/13 09:43:17;;;;;;;;;;;19.10;41.40;;;;;;491663;240;1065;-69
2020/12/13 09:45:19;;;;;;;;;;;19.00;41.40;;;;;;491741;240;980;-69
2020/12/13 09:47:20;;;;;;;;;;;19.00;41.50;;;;;;491722;240;1166;-69
2020/12/13 09:49:21;;;;;;;;;;;19.00;41.60;;;;;;491594;240;2179;-69
2020/12/13 09:51:22;;;;;;;;;;;19.10;41.60;;;;;;491614;240;1170;-69
2020/12/13 09:53:24;;;;;;;;;;;19.10;41.50;;;;;;491640;240;951;-69
2020/12/13 09:55:25;;;;;;;;;;;19.10;41.40;;;;;;491690;240;951;-69
2020/12/13 09:57:26;;;;;;;;;;;19.20;41.40;;;;;;491655;240;975;-69
2020/12/13 09:59:28;;;;;;;;;;;19.10;41.50;;;;;;491664;240;972;-69
2020/12/13 10:01:29;;;;;;;;;;;19.10;41.50;;;;;;491646;240;1065;-69
2020/12/13 10:03:30;;;;;;;;;;;19.10;41.60;;;;;;491672;240;945;-69
2020/12/13 10:05:37;;;;;;;;;;;19.10;41.70;;;;;;491609;240;1122;-69
2020/12/13 10:09:55;;;;;;;;;;;19.10;41.60;;;;;;491654;238;2192;-69
2020/12/13 10:11:56;;;;;;;;;;;19.10;41.40;;;;;;491620;240;1036;-69
2020/12/13 10:13:57;;;;;;;;;;;19.20;41.40;;;;;;491680;240;959;-69
2020/12/13 10:15:59;;;;;;;;;;;19.20;41.30;;;;;;491657;240;1226;-69
2020/12/13 10:18:00;;;;;;;;;;;19.20;41.30;;;;;;491689;240;970;-69
2020/12/13 10:20:01;;;;;;;;;;;19.20;41.20;;;;;;491630;240;1202;-69
2020/12/13 10:22:03;;;;;;;;;;;19.20;41.40;;;;;;491640;240;1150;-69
2020/12/13 10:24:04;;;;;;;;;;;19.30;41.20;;;;;;491650;240;1241;-70
2020/12/13 10:26:05;;;;;;;;;;;19.40;41.00;;;;;;491538;240;1126;-69
2020/12/13 10:28:07;;;;;;;;;;;19.40;40.90;;;;;;491605;240;1108;-69
2020/12/13 10:30:08;;;;;;;;;;;19.40;40.90;;;;;;491582;240;2185;-69
2020/12/13 10:32:09;;;;;;;;;;;19.40;40.90;;;;;;491594;240;1070;-69
2020/12/13 10:34:11;;;;;;;;;;;19.50;40.80;;;;;;491620;240;1270;-69
2020/12/13 10:36:12;;;;;;;;;;;19.40;40.70;;;;;;491668;240;1171;-70
2020/12/13 10:38:13;;;;;;;;;;;19.40;40.90;;;;;;491612;240;1060;-69
2020/12/13 10:40:14;;;;;;;;;;;19.30;40.90;;;;;;491575;240;1073;-69
2020/12/13 10:42:16;;;;;;;;;;;19.30;40.90;;;;;;491529;240;1112;-69
2020/12/13 10:44:19;;;;;;;;;;;19.30;40.90;;;;;;491642;240;949;-70
2020/12/13 10:46:18;;;;;;;;;;;19.30;41.10;;;;;;491578;242;1407;-69
2020/12/13 10:48:19;;;;;;;;;;;19.30;40.90;;;;;;491606;240;953;-69
2020/12/13 10:50:21;;;;;;;;;;;19.30;41.00;;;;;;491575;240;2207;-69
2020/12/13 10:52:22;;;;;;;;;;;19.30;40.90;;;;;;491618;240;1300;-69
2020/12/13 10:54:23;;;;;;;;;;;19.30;40.90;;;;;;491670;240;1049;-69
2020/12/13 10:56:25;;;;;;;;;;;19.30;41.00;;;;;;491656;240;1079;-69
2020/12/13 10:58:26;;;;;;;;;;;19.40;40.90;;;;;;491650;240;1113;-69
2020/12/13 11:00:27;;;;;;;;;;;19.40;40.90;;;;;;491599;240;1125;-69
2020/12/13 11:02:29;;;;;;;;;;;19.30;40.90;;;;;;491567;240;997;-69
2020/12/13 11:04:30;;;;;;;;;;;19.30;40.90;;;;;;491649;240;1071;-69
2020/12/13 11:06:31;;;;;;;;;;;19.30;41.00;;;;;;491595;240;1222;-69
2020/12/13 11:08:32;;;;;;;;;;;19.40;41.00;;;;;;491668;240;949;-69
2020/12/13 11:10:33;;;;;;;;;;;19.30;41.00;;;;;;491561;240;2176;-69
2020/12/13 11:12:35;;;;;;;;;;;19.40;41.00;;;;;;491615;240;946;-69
2020/12/13 11:14:36;;;;;;;;;;;19.30;41.10;;;;;;491640;240;955;-69
2020/12/13 11:16:37;;;;;;;;;;;19.30;41.00;;;;;;491655;240;1249;-69
2020/12/13 11:18:39;;;;;;;;;;;19.30;41.10;;;;;;491695;240;1056;-69
2020/12/13 11:20:40;;;;;;;;;;;19.40;41.00;;;;;;491638;240;1165;-69
2020/12/13 11:22:41;;;;;;;;;;;19.40;41.00;;;;;;491615;240;1431;-69
2020/12/13 11:24:42;;;;;;;;;;;19.30;41.00;;;;;;491586;240;970;-69
2020/12/13 11:26:44;;;;;;;;;;;19.40;41.00;;;;;;491545;240;1275;-69
2020/12/13 11:28:45;;;;;;;;;;;19.40;41.00;;;;;;491612;240;1141;-69
2020/12/13 11:30:46;;;;;;;;;;;19.50;40.90;;;;;;491654;240;1044;-69
2020/12/13 11:32:49;;;;;;;;;;;19.50;40.90;;;;;;491617;240;1172;-69
2020/12/13 11:34:49;;;;;;;;;;;19.40;40.90;;;;;;491578;242;1449;-69
2020/12/13 11:36:50;;;;;;;;;;;19.50;40.90;;;;;;491600;240;1188;-69
2020/12/13 11:38:51;;;;;;;;;;;19.50;40.90;;;;;;491723;240;968;-69
2020/12/13 11:40:53;;;;;;;;;;;19.50;40.90;;;;;;491643;240;1087;-69
2020/12/13 11:42:54;;;;;;;;;;;19.50;40.80;;;;;;491607;240;983;-69
2020/12/13 11:44:55;;;;;;;;;;;19.50;40.90;;;;;;491625;240;1052;-69
2020/12/13 11:46:56;;;;;;;;;;;19.50;40.90;;;;;;491637;240;1094;-69
2020/12/13 11:48:58;;;;;;;;;;;19.50;40.90;;;;;;491627;240;2188;-69
2020/12/13 11:50:59;;;;;;;;;;;19.50;41.00;;;;;;491546;240;1147;-69
2020/12/13 11:53:00;;;;;;;;;;;19.40;41.10;;;;;;491639;240;1173;-69
2020/12/13 11:55:02;;;;;;;;;;;19.40;41.10;;;;;;491656;240;1073;-69
2020/12/13 11:57:03;;;;;;;;;;;19.40;41.30;;;;;;491636;240;1199;-69
2020/12/13 11:59:04;;;;;;;;;;;19.30;41.20;;;;;;491630;240;1486;-69
2020/12/13 12:01:05;;;;;;;;;;;19.30;41.30;;;;;;491612;240;1436;-69
2020/12/13 12:03:07;;;;;;;;;;;19.40;41.30;;;;;;491550;240;1192;-69
2020/12/13 12:05:08;;;;;;;;;;;19.30;41.30;;;;;;491649;240;1046;-69